Aktualne dane pomiarowe

Uwaga, wersja testowa! Automatyczne pobieranie danych za pomocą narzędzi lub skryptów to umożliwiających jest zabronione.

Dane meteo z obszaru Polski uzyskane na podstawie depesz SYNOP pobieranych co godzinę z NWS. Najedź myszką na symbol przedstawiony w tabeli, aby uzyskać informacje co do jego znaczenia. Prosimy pamiętać, że to testowa wersja strony, która jeszcze nie jest ukończona. Stworzono również jest krótki FAQ dotyczący korzystania z tej podstrony Anomalie temperatury w chwili obecnej odniesione są do okresu referencyjnego 1951-2016. Okres ten będzie później zmieniony na 1981-2010. Kliknij ikonę aby pobrać plik CSV. Kliknij ikonę aby wygenerować mapę synoptyczną dla danego terminu.

Wybierz Datę:    

        

Cewice (12136)

Dane terminowe dla wybranej stacji. Kliknij datę, aby otrzymać dane z tego terminu dla wszystkich stacji.

TemperaturaZachmurzenieWiatrCiśnienieOpadyPogoda
 Data t td wb tx tn tg rh  Nt Nl Cl Cm Ch ws wd g1 g2 wx mslp ppp ch 24h 12h t ww ww w1 w2  
2019-07-04 23:00:00 12.8 11.9 12.1--- 949.0wxwxwx7wx--71010.4 992.0 -2.3---wx-w1w2--
2019-07-04 22:00:00 12.8 11.8 12.1--- 9410.0wxwxwx7wx-1271011.3 992.9 -1.9---wx-w1w2--
2019-07-04 21:00:00 12.5 11.7 11.9--- 959.0wxwxwx6wx--61012.1 993.7 -2.1---wx-w1w2--
2019-07-04 20:00:00 12.5 11.5 11.8--- 9410.0wxwxwx6wx--61012.8 994.4 -2.4---wx-w1w2--
2019-07-04 19:00:00 12.4 11.1 11.5--- 9210.0wxwxwx5wx--51013.3 994.8 -2.6---------
2019-07-04 18:00:00 12.0 11.0 11.3 18.3 11.8- 9420.0wxwxwx5wx-1451014.3 995.8 -2.6- 2.012wx-w1w2--
2019-07-04 17:00:00 11.9 10.7 11.0--- 929.0wxwxwx6wx--61015.4 996.8 -1.9---wx-w1w2--
2019-07-04 16:00:00 12.4 11.0 11.4--- 919.0wxwxwx6wx--61016.0 997.4 -1.3---wx-w1w2--
2019-07-04 15:00:00 12.5 11.3 11.6--- 927.0wxwxwx6wx-1461016.9 998.3 -0.8---wx-w1--
2019-07-04 14:00:00 13.9 9.6 11.2--- 7520.0wxwxwx9wx--91017.2 998.8 -0.7---wx-w1--
2019-07-04 13:00:00 16.6 6.9 11.1--- 5355.0wxwxwx8wx-1481017.0 998.7 -0.7---------
2019-07-04 12:00:00 17.5 5.2 10.8--- 4450.0wxwxwx9wx-1691017.5 999.3 -0.3- 0.16------
2019-07-04 11:00:00 16.2 4.2 9.8--- 4555.0wxwxwx10wx1616101017.8 999.4 -0.3---------
2019-07-04 10:00:00 16.7 3.8 9.9--- 4255.0wxwxwx10wx-13101017.7 999.4 0.1---------
2019-07-04 09:00:00 14.7 7.0 10.2--- 6050.0wxwxwx7wx--71017.9 999.5 0.2---------
2019-07-04 08:00:00 12.5 8.7 10.1--- 7827.0wxwxwx7wx--71018.4 999.8 0.4---wx-w1--
2019-07-04 07:00:00 11.8 9.2 10.1--- 8420.0wxwxwx7wx--71018.2 999.6 0.2---wx-w1--
2019-07-04 06:00:00 12.4 8.9 10.2 14.5 8.4- 7950.0wxwxwx6wx--61018.0 999.5 0.1 0.4 0.412------
2019-07-04 05:00:00 10.9 9.7 10.0--- 9220.0wxwxwxwx4wx--41018.0 999.4 -0.2---wx---
2019-07-04 04:00:00 10.0 9.0 9.3--- 9440.0wxwxwx4wx--41018.2 999.5 -0.2---wx-w1--
2019-07-04 03:00:00 9.8 8.8 9.1--- 9320.0wxwxwx5wx--51018.3 999.5 -0.2---wx---
2019-07-04 02:00:00 9.1 8.0 8.3--- 9350.0wxwxwx3wx--31018.3 999.5 -0.5---------
2019-07-04 01:00:00 9.4 8.0 8.4--- 9155.0wxwxwx3wx--31018.4 999.6 -0.5---------
2019-07-04 00:00:00 9.4 8.0 8.4--- 9150.0wxwxwxwx3wx--31018.6 999.8 -0.3- 0.26------
2019-07-03 23:00:00 10.1 8.0 8.7--- 8755.0wxwxwxwx3wx--31018.71000.0 0.0---wx-w1--
2019-07-03 22:00:00 10.8 6.6 8.2--- 7555.0wx-4wx--41018.81000.1 0.2---------
2019-07-03 21:00:00 11.7 6.7 8.7--- 7160.0wxwxwx4wx--41018.61000.0 0.1---------
2019-07-03 20:00:00 10.2 6.1 7.7--- 7655.0wx-3wx--31018.7 999.9 0.1---------
2019-07-03 19:00:00 13.4 6.6 9.4--- 6360.0wxwxwx5wx--51018.4 999.9 0.1---------
2019-07-03 18:00:00 14.2 5.9 9.5 18.1 13.4- 5760.0wxwxwx6wx-1461018.41000.0 0.0- 0.012------
2019-07-03 17:00:00 15.3 3.6 9.1--- 4665.0wxwxwx8wx--81018.41000.0 0.4---------
2019-07-03 16:00:00 16.3 3.5 9.6--- 4255.0wxwxwx8wx-1381018.3 999.9 0.3---------
2019-07-03 15:00:00 16.2 5.6 10.4--- 4965.0wxwxwx7wx-1471018.2 999.9 0.4---------
2019-07-03 14:00:00 17.1 5.6 10.8--- 4755.0wxwxwx8wx131481017.8 999.6 0.5---------
2019-07-03 13:00:00 17.0 4.1 10.2--- 4250.0wxwxwx8wx--81017.9 999.6 0.7---------
2019-07-03 12:00:00 16.5 3.3 9.6--- 4155.0wxwxwx8wx-1581017.8 999.5 0.8- 0.06------
2019-07-03 11:00:00 16.2 4.5 9.9--- 4655.0wxwxwx9wx-1591017.4 999.1 0.6---------
2019-07-03 10:00:00 15.3 6.1 10.1--- 5455.0wxwxwx6wx--61017.3 998.9 1.0---------
2019-07-03 09:00:00 16.4 5.3 10.3--- 4855.0wxwxwx6wx-1261016.9 998.7 0.8---------
2019-07-03 08:00:00 15.2 4.5 9.4--- 4950.0wxwxwx7wx--71016.9 998.5 0.8---------
2019-07-03 07:00:00 14.3 4.7 9.1--- 5260.0wxwxwx6wx--61016.4 998.0 0.5---------
2019-07-03 06:00:00 14.0 5.1 9.1 14.7 7.0- 5555.0wxwxwx8wx-1381016.3 997.8 0.6 4.3 0.012------
2019-07-03 05:00:00 12.5 6.3 8.9--- 6640.0wxwxwx5wx--51016.3 997.7 0.6---------
2019-07-03 04:00:00 10.5 7.5 8.6--- 8240.0wxwxwx4wx--41016.2 997.5 0.4---------
2019-07-03 03:00:00 9.8 7.4 8.2--- 8540.0wxwxwx4wx--41015.9 997.2 0.2---------
2019-07-03 02:00:00 8.4 6.7 7.3--- 8940.0wxwxwxwx3wx--31015.9 997.1 0.1---------
2019-07-03 01:00:00 7.1 5.7 6.1--- 9140.0wxwxwx3wx--31016.0 997.1 -0.1---------
2019-07-03 00:00:00 8.1 6.4 7.0--- 8940.0wx-4wx-1241015.8 997.0 -0.3- 0.06------
2.5 ms

 

Print Friendly, PDF & Email